createdAt,value
2017-12-13T00:00:56.652Z,0
2017-12-13T00:01:56.930Z,0
2017-12-13T00:02:56.682Z,0
2017-12-13T00:03:56.680Z,0
2017-12-13T00:04:56.697Z,0
2017-12-13T00:05:56.972Z,0
2017-12-13T00:06:56.982Z,0
2017-12-13T00:07:56.998Z,0
2017-12-13T00:08:57.003Z,0
2017-12-13T00:09:57.017Z,0
2017-12-13T00:10:57.055Z,0
2017-12-13T00:11:57.045Z,0
2017-12-13T00:12:57.053Z,0
2017-12-13T00:13:56.799Z,0
2017-12-13T00:14:56.540Z,0
2017-12-13T00:15:57.082Z,0
2017-12-13T00:16:57.153Z,0
2017-12-13T00:17:56.843Z,0
2017-12-13T00:18:57.121Z,0
2017-12-13T00:19:57.123Z,0
2017-12-13T00:20:56.874Z,0
2017-12-13T00:21:56.883Z,0
2017-12-13T00:22:56.894Z,0
2017-12-13T00:23:56.905Z,0
2017-12-13T00:24:57.181Z,0
2017-12-13T00:25:57.203Z,0
2017-12-13T00:26:57.211Z,0
2017-12-13T00:27:56.959Z,0
2017-12-13T00:28:56.698Z,0
2017-12-13T00:29:57.244Z,0
2017-12-13T00:30:56.988Z,0
2017-12-13T00:31:57.264Z,0
2017-12-13T00:32:57.013Z,0
2017-12-13T00:33:57.294Z,0
2017-12-13T00:34:57.302Z,0
2017-12-13T00:35:57.321Z,0
2017-12-13T00:36:57.054Z,0
2017-12-13T00:37:57.338Z,0
2017-12-13T00:38:57.118Z,0
2017-12-13T00:39:56.822Z,0
2017-12-13T00:40:56.833Z,0
2017-12-13T00:41:57.371Z,0
2017-12-13T00:42:57.391Z,0
2017-12-13T00:43:57.401Z,0
2017-12-13T00:44:57.410Z,0
2017-12-13T00:45:57.425Z,0
2017-12-13T00:46:57.166Z,0
2017-12-13T00:47:57.177Z,0
2017-12-13T00:48:57.457Z,0
2017-12-13T00:49:57.467Z,0
2017-12-13T00:50:57.209Z,0
2017-12-13T00:51:56.958Z,0
2017-12-13T00:52:57.493Z,0
2017-12-13T00:53:57.509Z,0
2017-12-13T00:54:57.521Z,0
2017-12-13T00:55:57.536Z,0
2017-12-13T00:56:57.275Z,0
2017-12-13T00:57:57.553Z,0
2017-12-13T00:58:57.574Z,0
2017-12-13T00:59:57.309Z,0
2017-12-13T01:00:57.588Z,0
2017-12-13T01:01:57.599Z,0
2017-12-13T01:02:57.614Z,0
2017-12-13T01:03:57.727Z,0
2017-12-13T01:04:57.455Z,0
2017-12-13T01:05:57.745Z,0
2017-12-13T01:06:57.757Z,0
2017-12-13T01:07:57.538Z,0
2017-12-13T01:08:57.510Z,0
2017-12-13T01:09:57.518Z,0
2017-12-13T01:10:57.810Z,0
2017-12-13T01:11:57.812Z,0
2017-12-13T01:12:57.822Z,0
2017-12-13T01:13:57.010Z,0
2017-12-13T01:14:57.841Z,0
2017-12-13T01:15:57.580Z,0
2017-12-13T01:16:57.871Z,0
2017-12-13T01:17:57.606Z,0
2017-12-13T01:18:57.611Z,0
2017-12-13T01:19:57.623Z,0
2017-12-13T01:20:57.636Z,0
2017-12-13T01:21:57.643Z,0
2017-12-13T01:22:57.661Z,0
2017-12-13T01:23:57.994Z,0
2017-12-13T01:24:57.955Z,0
2017-12-13T01:25:57.964Z,0
2017-12-13T01:26:57.976Z,0
2017-12-13T01:27:57.725Z,0
2017-12-13T01:28:57.447Z,0
2017-12-13T01:29:58.012Z,0
2017-12-13T01:30:58.023Z,0
2017-12-13T01:31:58.037Z,0
2017-12-13T01:32:58.044Z,0
2017-12-13T01:33:57.831Z,0
2017-12-13T01:34:57.792Z,0
2017-12-13T01:35:58.074Z,0
2017-12-13T01:36:58.090Z,0
2017-12-13T01:37:58.106Z,0
2017-12-13T01:39:15.009Z,0
2017-12-13T01:39:58.121Z,0
2017-12-13T01:40:57.583Z,0
2017-12-13T01:41:58.147Z,0
2017-12-13T01:42:58.154Z,0
2017-12-13T01:43:57.888Z,0
2017-12-13T01:44:58.228Z,0
2017-12-13T01:45:57.637Z,0
2017-12-13T01:46:58.207Z,0
2017-12-13T01:47:58.212Z,0
2017-12-13T01:48:57.939Z,0
2017-12-13T01:49:58.001Z,0
2017-12-13T01:50:57.694Z,0
2017-12-13T01:51:58.252Z,0
2017-12-13T01:52:57.988Z,0
2017-12-13T01:53:57.999Z,0
2017-12-13T01:54:58.056Z,0
2017-12-13T01:55:58.019Z,0
2017-12-13T01:56:58.312Z,0
2017-12-13T01:57:58.047Z,0
2017-12-13T01:58:58.048Z,0
2017-12-13T01:59:58.061Z,0
2017-12-13T02:00:58.350Z,0
2017-12-13T02:01:58.364Z,0
2017-12-13T02:02:58.371Z,0
2017-12-13T02:03:58.109Z,0
2017-12-13T02:04:58.398Z,0
2017-12-13T02:05:57.855Z,0
2017-12-13T02:06:58.420Z,0
2017-12-13T02:07:58.152Z,0
2017-12-13T02:08:58.444Z,0
2017-12-13T02:09:59.077Z,0
2017-12-13T02:10:58.456Z,0
2017-12-13T02:11:58.469Z,0
2017-12-13T02:12:58.476Z,0
2017-12-13T02:13:58.235Z,0
2017-12-13T02:14:58.553Z,0
2017-12-13T02:15:58.510Z,0
2017-12-13T02:16:58.604Z,0
2017-12-13T02:17:58.540Z,0
2017-12-13T02:18:58.548Z,0
2017-12-13T02:19:58.439Z,0
2017-12-13T02:20:58.287Z,0
2017-12-13T02:21:58.575Z,0
2017-12-13T02:22:58.309Z,0
2017-12-13T02:23:58.319Z,0
2017-12-13T02:24:58.331Z,0
2017-12-13T02:25:58.345Z,0
2017-12-13T02:26:58.079Z,0
2017-12-13T02:27:57.812Z,0
2017-12-13T02:28:58.102Z,0
2017-12-13T02:29:58.670Z,0
2017-12-13T02:30:58.678Z,0
2017-12-13T02:31:58.683Z,0
2017-12-13T02:32:58.419Z,0
2017-12-13T02:33:58.711Z,0
2017-12-13T02:34:58.442Z,0
2017-12-13T02:35:58.446Z,0
2017-12-13T02:36:58.741Z,0
2017-12-13T02:37:58.476Z,0
2017-12-13T02:38:58.778Z,0
2017-12-13T02:39:58.492Z,0
2017-12-13T02:40:58.547Z,0
2017-12-13T02:41:58.794Z,0
2017-12-13T02:42:58.809Z,0
2017-12-13T02:43:58.814Z,0
2017-12-13T02:44:58.823Z,0
2017-12-13T02:45:58.837Z,0
2017-12-13T02:46:58.593Z,0
2017-12-13T02:47:58.579Z,0
2017-12-13T02:48:58.870Z,0
2017-12-13T02:49:59.177Z,0
2017-12-13T02:50:58.895Z,0
2017-12-13T02:51:58.925Z,0
2017-12-13T02:52:58.660Z,0
2017-12-13T02:53:58.652Z,0
2017-12-13T02:54:58.384Z,0
2017-12-13T02:55:58.667Z,0
2017-12-13T02:56:58.683Z,0
2017-12-13T02:57:58.963Z,0
2017-12-13T02:58:58.980Z,0
2017-12-13T02:59:58.989Z,0
2017-12-13T03:00:58.721Z,0
2017-12-13T03:01:59.009Z,0
2017-12-13T03:02:59.027Z,0
2017-12-13T03:03:58.769Z,0
2017-12-13T03:04:58.811Z,0
2017-12-13T03:05:58.772Z,0
2017-12-13T03:06:58.518Z,0
2017-12-13T03:07:59.073Z,0
2017-12-13T03:08:58.808Z,0
2017-12-13T03:09:59.154Z,0
2017-12-13T03:10:58.555Z,0
2017-12-13T03:11:58.843Z,0
2017-12-13T03:12:58.850Z,0
2017-12-13T03:13:58.862Z,0
2017-12-13T03:14:58.593Z,0
2017-12-13T03:15:58.606Z,0
2017-12-13T03:16:58.897Z,0
2017-12-13T03:17:58.907Z,0
2017-12-13T03:18:58.912Z,0
2017-12-13T03:19:59.204Z,0
2017-12-13T03:20:59.213Z,0
2017-12-13T03:21:58.956Z,0
2017-12-13T03:22:58.682Z,0
2017-12-13T03:23:58.693Z,0
2017-12-13T03:24:59.264Z,0
2017-12-13T03:25:59.263Z,0
2017-12-13T03:26:59.005Z,0
2017-12-13T03:27:59.009Z,0
2017-12-13T03:28:59.019Z,0
2017-12-13T03:29:59.310Z,0
2017-12-13T03:30:59.326Z,0
2017-12-13T03:31:59.059Z,0
2017-12-13T03:32:58.785Z,0
2017-12-13T03:33:59.353Z,0
2017-12-13T03:34:59.368Z,0
2017-12-13T03:35:58.546Z,0
2017-12-13T03:36:59.110Z,0
2017-12-13T03:37:59.399Z,0
2017-12-13T03:38:59.133Z,0
2017-12-13T03:39:59.418Z,0
2017-12-13T03:40:59.147Z,0
2017-12-13T03:41:59.438Z,0
2017-12-13T03:42:59.447Z,0
2017-12-13T03:43:59.460Z,0
2017-12-13T03:44:59.199Z,0
2017-12-13T03:45:59.480Z,0
2017-12-13T03:46:59.215Z,0
2017-12-13T03:47:59.249Z,0
2017-12-13T03:48:59.514Z,0
2017-12-13T03:49:59.585Z,0
2017-12-13T03:50:59.256Z,0
2017-12-13T03:51:59.562Z,0
2017-12-13T03:52:59.002Z,0
2017-12-13T03:53:59.297Z,0
2017-12-13T03:54:59.027Z,0
2017-12-13T03:55:59.315Z,0
2017-12-13T03:56:59.597Z,0
2017-12-13T03:57:59.331Z,0
2017-12-13T03:58:59.620Z,0
2017-12-13T03:59:59.628Z,0
2017-12-13T04:00:58.823Z,0
2017-12-13T04:01:59.427Z,0
2017-12-13T04:02:59.711Z,0
2017-12-13T04:03:59.675Z,0
2017-12-13T04:04:59.406Z,0
2017-12-13T04:05:59.418Z,0
2017-12-13T04:06:59.704Z,0
2017-12-13T04:07:59.715Z,0
2017-12-13T04:08:59.725Z,0
2017-12-13T04:09:58.910Z,0
2017-12-13T04:10:59.758Z,0
2017-12-13T04:11:59.479Z,0
2017-12-13T04:12:59.266Z,0
2017-12-13T04:13:59.505Z,0
2017-12-13T04:14:59.515Z,0
2017-12-13T04:15:59.805Z,0
2017-12-13T04:16:59.538Z,0
2017-12-13T04:17:59.826Z,0
2017-12-13T04:18:59.561Z,0
2017-12-13T04:19:59.291Z,0
2017-12-13T04:20:59.857Z,0
2017-12-13T04:21:59.862Z,0
2017-12-13T04:22:59.891Z,0
2017-12-13T04:23:59.615Z,0
2017-12-13T04:24:59.962Z,0
2017-12-13T04:25:59.358Z,0
2017-12-13T04:26:59.368Z,0
2017-12-13T04:27:59.654Z,0
2017-12-13T04:28:59.664Z,0
2017-12-13T04:29:59.726Z,0
2017-12-13T04:30:59.708Z,0
2017-12-13T04:31:59.423Z,0
2017-12-13T04:32:59.984Z,0
2017-12-13T04:34:00.480Z,0
2017-12-13T04:35:00.030Z,0
2017-12-13T04:35:59.739Z,0
2017-12-13T04:36:59.773Z,0
2017-12-13T04:37:59.761Z,0
2017-12-13T04:38:59.495Z,0
2017-12-13T04:39:59.785Z,0
2017-12-13T04:40:59.510Z,0
2017-12-13T04:42:00.080Z,0
2017-12-13T04:42:59.864Z,0
2017-12-13T04:43:59.860Z,0
2017-12-13T04:44:59.610Z,0
2017-12-13T04:45:59.854Z,0
2017-12-13T04:46:59.859Z,0
2017-12-13T04:48:00.142Z,0
2017-12-13T04:48:59.875Z,0
2017-12-13T04:49:59.884Z,0
2017-12-13T04:51:00.168Z,0
2017-12-13T04:51:59.908Z,0
2017-12-13T04:52:59.927Z,0
2017-12-13T04:53:59.651Z,0
2017-12-13T04:55:00.220Z,0
2017-12-13T04:55:59.670Z,0
2017-12-13T04:56:59.960Z,0
2017-12-13T04:58:00.250Z,0
2017-12-13T04:58:59.985Z,0
2017-12-13T05:00:00.294Z,0
2017-12-13T05:01:00.106Z,0
2017-12-13T05:02:00.297Z,0
2017-12-13T05:03:00.022Z,0
2017-12-13T05:04:00.046Z,0
2017-12-13T05:05:00.316Z,0
2017-12-13T05:06:00.337Z,0
2017-12-13T05:06:59.798Z,0
2017-12-13T05:08:00.086Z,0
2017-12-13T05:09:00.363Z,0
2017-12-13T05:09:59.823Z,0
2017-12-13T05:11:00.390Z,0
2017-12-13T05:12:00.397Z,0
2017-12-13T05:13:00.218Z,0
2017-12-13T05:14:00.477Z,0
2017-12-13T05:15:01.104Z,0
2017-12-13T05:15:59.887Z,0
2017-12-13T05:17:00.174Z,0
2017-12-13T05:18:00.468Z,0
2017-12-13T05:19:00.626Z,0
2017-12-13T05:20:00.203Z,0
2017-12-13T05:21:00.212Z,0
2017-12-13T05:21:59.948Z,0
2017-12-13T05:22:59.965Z,0
2017-12-13T05:24:00.525Z,0
2017-12-13T05:25:00.251Z,0
2017-12-13T05:25:59.996Z,0
2017-12-13T05:27:00.305Z,0
2017-12-13T05:28:00.293Z,0
2017-12-13T05:29:00.031Z,0
2017-12-13T05:30:00.306Z,0
2017-12-13T05:31:00.376Z,0
2017-12-13T05:31:59.797Z,0
2017-12-13T05:33:00.353Z,0
2017-12-13T05:34:00.652Z,0
2017-12-13T05:35:00.634Z,0
2017-12-13T05:36:00.729Z,0
2017-12-13T05:37:00.439Z,0
2017-12-13T05:38:00.676Z,0
2017-12-13T05:39:00.451Z,0
2017-12-13T05:40:00.445Z,0
2017-12-13T05:41:00.432Z,0
2017-12-13T05:42:00.160Z,0
2017-12-13T05:43:00.451Z,0
2017-12-13T05:44:00.738Z,0
2017-12-13T05:45:00.211Z,0
2017-12-13T05:46:00.631Z,0
2017-12-13T05:47:00.483Z,0
2017-12-13T05:48:01.213Z,0
2017-12-13T05:49:00.530Z,0
2017-12-13T05:50:00.818Z,0
2017-12-13T05:51:00.533Z,0
2017-12-13T05:52:00.539Z,0
2017-12-13T05:53:00.579Z,0
2017-12-13T05:54:00.315Z,0
2017-12-13T05:55:00.842Z,0
2017-12-13T05:56:00.403Z,0
2017-12-13T05:57:00.864Z,0
2017-12-13T05:58:00.610Z,0
2017-12-13T05:59:00.879Z,0
2017-12-13T06:00:00.897Z,0
2017-12-13T06:01:00.076Z,0
2017-12-13T06:02:00.364Z,0
2017-12-13T06:03:00.651Z,0
2017-12-13T06:04:00.384Z,0
2017-12-13T06:05:00.400Z,0
2017-12-13T06:06:00.961Z,0
2017-12-13T06:07:00.141Z,0
2017-12-13T06:08:00.438Z,0
2017-12-13T06:09:00.718Z,0
2017-12-13T06:10:00.725Z,0
2017-12-13T06:11:01.013Z,0
2017-12-13T06:12:01.033Z,0
2017-12-13T06:13:00.753Z,0
2017-12-13T06:14:00.769Z,0
2017-12-13T06:15:00.786Z,0
2017-12-13T06:16:00.797Z,0
2017-12-13T06:17:00.527Z,0
2017-12-13T06:18:01.079Z,0
2017-12-13T06:19:00.827Z,0
2017-12-13T06:20:00.834Z,0
2017-12-13T06:21:01.129Z,0
2017-12-13T06:22:00.859Z,0
2017-12-13T06:23:01.137Z,0
2017-12-13T06:24:00.879Z,0
2017-12-13T06:25:01.160Z,0
2017-12-13T06:26:00.617Z,0
2017-12-13T06:27:01.185Z,0
2017-12-13T06:28:01.182Z,0
2017-12-13T06:29:00.923Z,0
2017-12-13T06:30:00.940Z,0
2017-12-13T06:31:00.668Z,0
2017-12-13T06:32:00.949Z,0
2017-12-13T06:33:00.972Z,0
2017-12-13T06:34:01.274Z,0
2017-12-13T06:35:00.729Z,0
2017-12-13T06:36:01.002Z,0
2017-12-13T06:37:01.283Z,0
2017-12-13T06:38:00.738Z,0
2017-12-13T06:39:01.024Z,0
2017-12-13T06:40:01.316Z,0
2017-12-13T06:41:01.395Z,0
2017-12-13T06:42:00.791Z,0
2017-12-13T06:43:01.078Z,0
2017-12-13T06:44:01.092Z,0
2017-12-13T06:45:01.086Z,4
2017-12-13T06:46:01.378Z,0
2017-12-13T06:47:01.110Z,0
2017-12-13T06:48:00.847Z,4
2017-12-13T06:49:01.406Z,4
2017-12-13T06:50:01.414Z,4
2017-12-13T06:51:01.144Z,4
2017-12-13T06:52:01.482Z,4
2017-12-13T06:53:00.892Z,4
2017-12-13T06:54:00.951Z,8
2017-12-13T06:55:01.194Z,8
2017-12-13T06:56:01.512Z,8
2017-12-13T06:57:01.217Z,8
2017-12-13T06:58:01.233Z,8
2017-12-13T06:59:00.951Z,12
2017-12-13T07:00:01.514Z,12
2017-12-13T07:01:01.258Z,16
2017-12-13T07:02:01.539Z,16
2017-12-13T07:03:01.270Z,16
2017-12-13T07:04:01.282Z,20
2017-12-13T07:05:01.294Z,20
2017-12-13T07:06:01.603Z,20
2017-12-13T07:07:01.635Z,28
2017-12-13T07:08:01.601Z,28
2017-12-13T07:09:01.379Z,28
2017-12-13T07:10:01.623Z,28
2017-12-13T07:11:01.351Z,32
2017-12-13T07:12:00.808Z,36
2017-12-13T07:13:01.099Z,40
2017-12-13T07:14:01.660Z,40
2017-12-13T07:15:01.675Z,44
2017-12-13T07:16:01.410Z,44
2017-12-13T07:17:01.470Z,48
2017-12-13T07:18:01.707Z,52
2017-12-13T07:19:01.711Z,56
2017-12-13T07:20:01.447Z,56
2017-12-13T07:21:01.734Z,60
2017-12-13T07:22:01.470Z,60
2017-12-13T07:23:01.487Z,64
2017-12-13T07:24:01.485Z,68
2017-12-13T07:25:01.220Z,72
2017-12-13T07:26:01.777Z,76
2017-12-13T07:27:01.580Z,76
2017-12-13T07:28:01.535Z,80
2017-12-13T07:29:01.810Z,80
2017-12-13T07:30:01.828Z,88
2017-12-13T07:31:01.566Z,92
2017-12-13T07:32:01.571Z,96
2017-12-13T07:33:01.581Z,96
2017-12-13T07:34:01.866Z,100
2017-12-13T07:35:01.603Z,104
2017-12-13T07:36:01.887Z,108
2017-12-13T07:37:01.669Z,108
2017-12-13T07:38:01.630Z,112
2017-12-13T07:39:01.639Z,108
2017-12-13T07:40:01.995Z,112
2017-12-13T07:41:01.938Z,116
2017-12-13T07:42:01.675Z,116
2017-12-13T07:43:01.404Z,120
2017-12-13T07:44:01.999Z,120
2017-12-13T07:45:01.430Z,120
2017-12-13T07:46:01.989Z,120
2017-12-13T07:47:01.819Z,124
2017-12-13T07:48:02.009Z,124
2017-12-13T07:49:01.746Z,128
2017-12-13T07:50:01.754Z,128
2017-12-13T07:51:01.488Z,132
2017-12-13T07:52:01.772Z,132
2017-12-13T07:53:02.066Z,136
2017-12-13T07:54:01.520Z,140
2017-12-13T07:55:02.080Z,144
2017-12-13T07:56:02.096Z,148
2017-12-13T07:57:01.832Z,148
2017-12-13T07:58:02.117Z,152
2017-12-13T07:59:01.856Z,152
2017-12-13T08:00:02.134Z,156
2017-12-13T08:01:01.882Z,156
2017-12-13T08:02:01.611Z,160
2017-12-13T08:03:02.182Z,164
2017-12-13T08:04:01.899Z,168
2017-12-13T08:05:02.340Z,168
2017-12-13T08:06:01.924Z,172
2017-12-13T08:07:01.652Z,168
2017-12-13T08:08:01.948Z,176
2017-12-13T08:09:01.690Z,176
2017-12-13T08:10:01.966Z,172
2017-12-13T08:11:01.973Z,172
2017-12-13T08:12:02.258Z,180
2017-12-13T08:13:02.002Z,180
2017-12-13T08:14:02.004Z,176
2017-12-13T08:15:01.738Z,172
2017-12-13T08:16:01.470Z,172
2017-12-13T08:17:02.309Z,180
2017-12-13T08:18:02.043Z,180
2017-12-13T08:19:02.056Z,184
2017-12-13T08:20:02.339Z,180
2017-12-13T08:21:02.360Z,180
2017-12-13T08:22:02.377Z,184
2017-12-13T08:23:02.370Z,192
2017-12-13T08:24:02.121Z,188
2017-12-13T08:25:02.123Z,192
2017-12-13T08:26:02.126Z,188
2017-12-13T08:27:02.411Z,184
2017-12-13T08:28:02.155Z,188
2017-12-13T08:29:01.893Z,192
2017-12-13T08:30:01.622Z,204
2017-12-13T08:31:02.180Z,260
2017-12-13T08:32:02.480Z,244
2017-12-13T08:33:02.484Z,224
2017-12-13T08:34:02.506Z,236
2017-12-13T08:35:02.519Z,256
2017-12-13T08:36:01.681Z,264
2017-12-13T08:37:02.241Z,280
2017-12-13T08:38:02.530Z,284
2017-12-13T08:39:02.543Z,288
2017-12-13T08:40:02.280Z,320
2017-12-13T08:41:02.288Z,276
2017-12-13T08:42:02.577Z,272
2017-12-13T08:43:02.602Z,256
2017-12-13T08:44:02.322Z,236
2017-12-13T08:45:02.605Z,224
2017-12-13T08:46:02.616Z,220
2017-12-13T08:47:02.353Z,216
2017-12-13T08:48:02.673Z,212
2017-12-13T08:49:02.102Z,212
2017-12-13T08:50:02.658Z,220
2017-12-13T08:51:02.395Z,224
2017-12-13T08:52:02.685Z,232
2017-12-13T08:53:02.427Z,240
2017-12-13T08:54:02.710Z,244
2017-12-13T08:55:02.722Z,256
2017-12-13T08:56:02.451Z,260
2017-12-13T08:57:02.740Z,264
2017-12-13T08:58:02.801Z,272
2017-12-13T08:59:02.485Z,276
2017-12-13T09:00:02.774Z,280
2017-12-13T09:01:02.230Z,284
2017-12-13T09:02:02.795Z,288
2017-12-13T09:03:02.529Z,292
2017-12-13T09:04:02.544Z,304
2017-12-13T09:05:02.831Z,320
2017-12-13T09:06:02.279Z,352
2017-12-13T09:07:02.567Z,388
2017-12-13T09:08:02.861Z,436
2017-12-13T09:09:02.584Z,472
2017-12-13T09:10:02.610Z,492
2017-12-13T09:11:02.886Z,496
2017-12-13T09:12:02.620Z,476
2017-12-13T09:13:02.908Z,452
2017-12-13T09:14:02.648Z,412
2017-12-13T09:15:02.662Z,372
2017-12-13T09:16:02.668Z,340
2017-12-13T09:17:02.951Z,320
2017-12-13T09:18:02.977Z,312
2017-12-13T09:19:02.979Z,308
2017-12-13T09:20:02.990Z,304
2017-12-13T09:21:03.013Z,300
2017-12-13T09:22:03.010Z,300
2017-12-13T09:23:02.747Z,300
2017-12-13T09:24:02.757Z,288
2017-12-13T09:25:02.803Z,284
2017-12-13T09:26:02.507Z,276
2017-12-13T09:27:03.065Z,268
2017-12-13T09:28:03.121Z,264
2017-12-13T09:29:02.804Z,260
2017-12-13T09:30:02.819Z,264
2017-12-13T09:31:02.835Z,264
2017-12-13T09:32:02.851Z,264
2017-12-13T09:33:02.575Z,260
2017-12-13T09:34:02.870Z,252
2017-12-13T09:35:02.872Z,248
2017-12-13T09:36:02.884Z,248
2017-12-13T09:37:03.174Z,248
2017-12-13T09:38:02.910Z,248
2017-12-13T09:39:02.925Z,248
2017-12-13T09:40:02.937Z,248
2017-12-13T09:41:03.217Z,256
2017-12-13T09:42:03.420Z,256
2017-12-13T09:43:02.962Z,256
2017-12-13T09:44:03.274Z,256
2017-12-13T09:45:02.981Z,260
2017-12-13T09:46:02.999Z,260
2017-12-13T09:47:03.279Z,260
2017-12-13T09:48:02.758Z,260
2017-12-13T09:49:03.024Z,260
2017-12-13T09:50:03.313Z,260
2017-12-13T09:51:02.771Z,268
2017-12-13T09:52:03.354Z,276
2017-12-13T09:53:03.067Z,288
2017-12-13T09:54:03.093Z,308
2017-12-13T09:55:03.374Z,336
2017-12-13T09:56:03.110Z,372
2017-12-13T09:57:03.389Z,412
2017-12-13T09:58:02.912Z,448
2017-12-13T09:59:03.135Z,476
2017-12-13T10:00:03.146Z,492
2017-12-13T10:01:03.154Z,496
2017-12-13T10:02:03.457Z,472
2017-12-13T10:03:03.176Z,428
2017-12-13T10:04:03.460Z,380
2017-12-13T10:05:03.477Z,356
2017-12-13T10:06:03.496Z,336
2017-12-13T10:07:03.498Z,332
2017-12-13T10:08:03.243Z,312
2017-12-13T10:09:03.525Z,296
2017-12-13T10:10:03.271Z,300
2017-12-13T10:11:03.544Z,292
2017-12-13T10:12:03.296Z,296
2017-12-13T10:13:03.561Z,292
2017-12-13T10:14:03.570Z,288
2017-12-13T10:15:03.320Z,280
2017-12-13T10:16:02.765Z,280
2017-12-13T10:17:03.330Z,284
2017-12-13T10:18:03.081Z,284
2017-12-13T10:19:03.358Z,284
2017-12-13T10:20:03.081Z,284
2017-12-13T10:21:03.094Z,288
2017-12-13T10:22:03.395Z,288
2017-12-13T10:23:03.760Z,296
2017-12-13T10:24:03.706Z,296
2017-12-13T10:25:03.156Z,300
2017-12-13T10:26:03.905Z,304
2017-12-13T10:27:03.716Z,312
2017-12-13T10:28:03.731Z,312
2017-12-13T10:29:03.497Z,312
2017-12-13T10:30:03.474Z,308
2017-12-13T10:31:03.489Z,312
2017-12-13T10:32:02.957Z,312
2017-12-13T10:33:03.780Z,316
2017-12-13T10:34:03.851Z,316
2017-12-13T10:35:03.804Z,316
2017-12-13T10:36:03.820Z,312
2017-12-13T10:37:03.836Z,316
2017-12-13T10:38:03.907Z,316
2017-12-13T10:39:03.844Z,320
2017-12-13T10:40:03.307Z,328
2017-12-13T10:41:03.315Z,340
2017-12-13T10:42:03.609Z,356
2017-12-13T10:43:03.620Z,364
2017-12-13T10:44:03.904Z,372
2017-12-13T10:45:03.360Z,380
2017-12-13T10:46:03.683Z,392
2017-12-13T10:47:03.945Z,404
2017-12-13T10:48:03.949Z,412
2017-12-13T10:49:03.685Z,420
2017-12-13T10:50:03.696Z,448
2017-12-13T10:51:03.701Z,464
2017-12-13T10:52:03.468Z,472
2017-12-13T10:53:04.011Z,464
2017-12-13T10:54:03.742Z,460
2017-12-13T10:55:04.070Z,460
2017-12-13T10:56:03.775Z,456
2017-12-13T10:57:03.772Z,448
2017-12-13T10:58:04.069Z,448
2017-12-13T10:59:03.800Z,444
2017-12-13T11:00:03.802Z,440
2017-12-13T11:01:04.099Z,444
2017-12-13T11:02:04.102Z,440
2017-12-13T11:03:03.836Z,440
2017-12-13T11:04:04.121Z,432
2017-12-13T11:05:03.867Z,428
2017-12-13T11:06:04.151Z,424
2017-12-13T11:07:04.160Z,416
2017-12-13T11:08:04.177Z,412
2017-12-13T11:09:03.654Z,428
2017-12-13T11:10:04.190Z,428
2017-12-13T11:11:03.656Z,424
2017-12-13T11:12:04.215Z,440
2017-12-13T11:13:03.958Z,440
2017-12-13T11:14:03.957Z,448
2017-12-13T11:15:04.260Z,460
2017-12-13T11:16:03.988Z,464
2017-12-13T11:17:04.000Z,452
2017-12-13T11:18:03.745Z,448
2017-12-13T11:19:04.336Z,472
2017-12-13T11:20:04.310Z,468
2017-12-13T11:21:04.332Z,460
2017-12-13T11:22:03.799Z,460
2017-12-13T11:23:04.064Z,456
2017-12-13T11:24:04.421Z,460
2017-12-13T11:25:04.365Z,460
2017-12-13T11:26:04.100Z,472
2017-12-13T11:27:03.837Z,496
2017-12-13T11:28:04.400Z,516
2017-12-13T11:29:04.403Z,512
2017-12-13T11:30:04.422Z,524
2017-12-13T11:31:04.434Z,564
2017-12-13T11:32:04.160Z,584
2017-12-13T11:33:04.181Z,592
2017-12-13T11:34:04.465Z,592
2017-12-13T11:35:04.203Z,604
2017-12-13T11:36:04.217Z,620
2017-12-13T11:37:04.498Z,632
2017-12-13T11:38:04.515Z,640
2017-12-13T11:39:04.249Z,636
2017-12-13T11:40:04.259Z,660
2017-12-13T11:41:04.272Z,668
2017-12-13T11:42:04.565Z,664
2017-12-13T11:43:04.566Z,652
2017-12-13T11:44:04.312Z,624
2017-12-13T11:45:04.590Z,596
2017-12-13T11:46:05.803Z,556
2017-12-13T11:47:04.618Z,524
2017-12-13T11:48:04.357Z,496
2017-12-13T11:49:04.648Z,476
2017-12-13T11:50:04.380Z,444
2017-12-13T11:51:04.118Z,440
2017-12-13T11:52:04.681Z,436
2017-12-13T11:53:03.855Z,404
2017-12-13T11:54:04.696Z,388
2017-12-13T11:55:04.433Z,388
2017-12-13T11:56:04.723Z,392
2017-12-13T11:57:04.180Z,400
2017-12-13T11:58:04.470Z,380
2017-12-13T11:59:04.484Z,368
2017-12-13T12:00:04.213Z,356
2017-12-13T12:01:04.224Z,356
2017-12-13T12:02:04.514Z,344
2017-12-13T12:03:04.524Z,356
2017-12-13T12:04:04.813Z,340
2017-12-13T12:05:04.277Z,352
2017-12-13T12:06:04.560Z,356
2017-12-13T12:07:04.853Z,400
2017-12-13T12:08:04.921Z,376
2017-12-13T12:09:04.920Z,376
2017-12-13T12:10:04.607Z,392
2017-12-13T12:11:04.340Z,436
2017-12-13T12:12:04.354Z,648
2017-12-13T12:13:04.643Z,644
2017-12-13T12:14:04.942Z,672
2017-12-13T12:15:04.983Z,756
2017-12-13T12:16:04.678Z,696
2017-12-13T12:17:04.688Z,760
2017-12-13T12:18:04.700Z,744
2017-12-13T12:19:05.045Z,768
2017-12-13T12:20:04.746Z,832
2017-12-13T12:21:04.740Z,796
2017-12-13T12:22:05.140Z,716
2017-12-13T12:23:05.037Z,832
2017-12-13T12:24:04.500Z,752
2017-12-13T12:25:05.082Z,664
2017-12-13T12:26:04.811Z,660
2017-12-13T12:27:04.818Z,652
2017-12-13T12:28:04.832Z,568
2017-12-13T12:29:05.169Z,500
2017-12-13T12:30:04.850Z,524
2017-12-13T12:31:05.138Z,472
2017-12-13T12:32:04.599Z,476
2017-12-13T12:33:04.889Z,416
2017-12-13T12:34:05.176Z,384
2017-12-13T12:35:04.918Z,376
2017-12-13T12:36:05.207Z,436
2017-12-13T12:37:05.208Z,548
2017-12-13T12:38:05.222Z,424
2017-12-13T12:39:05.286Z,436
2017-12-13T12:40:05.251Z,524
2017-12-13T12:41:05.257Z,596
2017-12-13T12:42:04.732Z,608
2017-12-13T12:43:05.301Z,680
2017-12-13T12:44:04.810Z,660
2017-12-13T12:45:05.319Z,600
2017-12-13T12:46:05.040Z,704
2017-12-13T12:47:05.053Z,724
2017-12-13T12:48:05.360Z,696
2017-12-13T12:49:05.077Z,732
2017-12-13T12:50:05.380Z,780
2017-12-13T12:51:04.822Z,724
2017-12-13T12:52:05.139Z,448
2017-12-13T12:53:05.124Z,404
2017-12-13T12:54:05.142Z,388
2017-12-13T12:55:05.154Z,384
2017-12-13T12:56:04.893Z,384
2017-12-13T12:57:05.171Z,392
2017-12-13T12:58:05.469Z,392
2017-12-13T12:59:05.207Z,400
2017-12-13T13:00:05.210Z,404
2017-12-13T13:01:05.503Z,412
2017-12-13T13:02:05.242Z,432
2017-12-13T13:03:05.249Z,444
2017-12-13T13:04:05.540Z,460
2017-12-13T13:05:05.546Z,484
2017-12-13T13:06:05.565Z,512
2017-12-13T13:07:05.021Z,540
2017-12-13T13:08:05.314Z,560
2017-12-13T13:09:05.804Z,560
2017-12-13T13:10:05.334Z,556
2017-12-13T13:11:05.624Z,556
2017-12-13T13:12:05.092Z,568
2017-12-13T13:13:05.458Z,584
2017-12-13T13:14:05.116Z,608
2017-12-13T13:15:05.402Z,644
2017-12-13T13:16:05.704Z,664
2017-12-13T13:17:05.423Z,692
2017-12-13T13:18:05.714Z,700
2017-12-13T13:19:05.167Z,696
2017-12-13T13:20:05.193Z,684
2017-12-13T13:21:05.748Z,668
2017-12-13T13:22:05.498Z,636
2017-12-13T13:23:05.767Z,588
2017-12-13T13:24:05.552Z,536
2017-12-13T13:25:05.244Z,476
2017-12-13T13:26:05.529Z,420
2017-12-13T13:27:05.818Z,372
2017-12-13T13:28:05.291Z,340
2017-12-13T13:29:05.914Z,308
2017-12-13T13:30:05.379Z,296
2017-12-13T13:31:05.598Z,296
2017-12-13T13:32:06.104Z,296
2017-12-13T13:33:05.631Z,296
2017-12-13T13:34:05.703Z,296
2017-12-13T13:35:05.643Z,288
2017-12-13T13:36:05.657Z,284
2017-12-13T13:37:05.700Z,272
2017-12-13T13:38:05.686Z,264
2017-12-13T13:39:06.022Z,252
2017-12-13T13:40:05.708Z,248
2017-12-13T13:41:05.996Z,248
2017-12-13T13:42:06.034Z,240
2017-12-13T13:43:05.744Z,224
2017-12-13T13:44:06.101Z,212
2017-12-13T13:45:05.768Z,200
2017-12-13T13:46:05.800Z,188
2017-12-13T13:47:05.793Z,188
2017-12-13T13:48:06.078Z,192
2017-12-13T13:49:05.817Z,196
2017-12-13T13:50:06.118Z,208
2017-12-13T13:51:06.118Z,216
2017-12-13T13:52:05.599Z,224
2017-12-13T13:53:06.140Z,228
2017-12-13T13:54:05.935Z,228
2017-12-13T13:55:05.649Z,220
2017-12-13T13:56:06.191Z,216
2017-12-13T13:57:06.197Z,204
2017-12-13T13:58:06.222Z,192
2017-12-13T13:59:05.944Z,176
2017-12-13T14:00:05.972Z,164
2017-12-13T14:01:05.698Z,156
2017-12-13T14:02:06.258Z,152
2017-12-13T14:03:05.997Z,148
2017-12-13T14:04:06.002Z,144
2017-12-13T14:05:05.737Z,144
2017-12-13T14:06:05.773Z,144
2017-12-13T14:07:06.043Z,144
2017-12-13T14:08:06.150Z,144
2017-12-13T14:09:06.356Z,144
2017-12-13T14:10:06.080Z,144
2017-12-13T14:11:06.097Z,144
2017-12-13T14:12:06.399Z,144
2017-12-13T14:13:06.389Z,144
2017-12-13T14:14:06.406Z,140
2017-12-13T14:15:05.863Z,136
2017-12-13T14:16:06.427Z,140
2017-12-13T14:17:06.437Z,144